Time;durP1;ratioP1;P1;durP2;ratioP2;P2;SDS_P1;SDS_P2;PMS_P1;PMS_P2;Temp;Humidity;BMP_temperature;BMP_pressure;BME280_temperature;BME280_humidity;BME280_pressure;Samples;Min_cycle;Max_cycle;Signal;HPM_P1;HPM_P2
2021/07/25 00:00:46;;;;;;;19.52;15.07;;;;;;;19.46;85.98;99751.06;5007352;28;20054;-81
2021/07/25 00:03:13;;;;;;;17.08;14.27;;;;;;;19.40;86.32;99746.25;5001329;28;20110;-80
2021/07/25 00:05:42;;;;;;;18.70;14.63;;;;;;;19.33;86.68;99740.63;4998780;28;20074;-80
2021/07/25 00:08:12;;;;;;;21.77;15.13;;;;;;;19.23;86.95;99740.63;5003555;28;20046;-81
2021/07/25 00:10:47;;;;;;;19.20;14.77;;;;;;;19.24;87.23;99739.63;4993125;28;20046;-80
2021/07/25 00:13:16;;;;;;;19.13;15.02;;;;;;;19.21;86.96;99747.97;5007439;28;20061;-81
2021/07/25 00:15:44;;;;;;;17.67;13.63;;;;;;;19.18;86.94;99744.75;4997810;28;20054;-81
2021/07/25 00:18:11;;;;;;;15.60;12.57;;;;;;;19.11;86.40;99733.72;4996296;28;20070;-81
2021/07/25 00:20:37;;;;;;;20.13;13.43;;;;;;;19.10;86.01;99740.06;4996443;28;20046;-81
2021/07/25 00:23:06;;;;;;;14.35;12.05;;;;;;;19.08;86.22;99744.72;4996077;28;20057;-81
2021/07/25 00:25:35;;;;;;;14.05;12.45;;;;;;;19.05;86.05;99739.63;4995980;28;20050;-81
2021/07/25 00:28:02;;;;;;;15.10;12.18;;;;;;;19.01;86.06;99738.25;4995320;28;20056;-81
2021/07/25 00:30:29;;;;;;;13.88;12.23;;;;;;;19.04;86.35;99731.75;4994227;28;20047;-81
2021/07/25 00:32:56;;;;;;;15.38;12.43;;;;;;;19.09;86.72;99733.00;5001472;28;20050;-81
2021/07/25 00:35:22;;;;;;;15.10;12.20;;;;;;;19.12;86.45;99734.56;4993883;28;20050;-80
2021/07/25 00:37:52;;;;;;;20.25;13.02;;;;;;;19.07;86.33;99732.28;4989032;28;20418;-80
2021/07/25 00:40:37;;;;;;;17.35;13.23;;;;;;;19.07;86.38;99737.66;4995758;28;20061;-81
2021/07/25 00:43:03;;;;;;;16.00;12.75;;;;;;;19.04;86.78;99729.06;4991151;28;20090;-81
2021/07/25 00:45:30;;;;;;;15.80;13.35;;;;;;;19.07;86.44;99731.44;4996777;28;20085;-81
2021/07/25 00:47:58;;;;;;;15.20;12.85;;;;;;;19.03;86.46;99728.22;5003232;28;20054;-81
2021/07/25 00:50:27;;;;;;;15.95;13.43;;;;;;;19.00;86.84;99728.50;4996322;28;20050;-81
2021/07/25 00:52:55;;;;;;;16.98;12.88;;;;;;;19.03;86.10;99741.63;4992457;28;20230;-81
2021/07/25 00:55:22;;;;;;;16.63;13.35;;;;;;;19.01;86.06;99732.03;4999005;28;20057;-80
2021/07/25 00:57:49;;;;;;;14.68;12.55;;;;;;;18.97;86.07;99723.41;5001658;28;20057;-81
2021/07/25 01:00:16;;;;;;;16.30;12.45;;;;;;;19.05;85.77;99739.63;5001943;28;20105;-81
2021/07/25 01:03:10;;;;;;;15.73;12.40;;;;;;;19.08;85.43;99744.72;5008850;28;20054;-81
2021/07/25 01:05:55;;;;;;;16.50;13.45;;;;;;;19.07;85.39;99737.66;5007051;28;20134;-81
2021/07/25 01:08:48;;;;;;;18.35;13.85;;;;;;;19.06;85.42;99741.34;5013063;28;20098;-81
2021/07/25 01:11:15;;;;;;;18.85;13.30;;;;;;;19.06;85.64;99738.66;5008550;28;20526;-81
2021/07/25 01:13:47;;;;;;;16.15;12.10;;;;;;;19.06;85.68;99733.28;4992576;28;20109;-81
2021/07/25 01:16:13;;;;;;;16.20;13.02;;;;;;;19.07;85.45;99734.13;4974139;28;20077;-81
2021/07/25 01:18:48;;;;;;;16.45;12.40;;;;;;;19.07;85.57;99721.56;5001207;28;20054;-81
2021/07/25 01:21:16;;;;;;;16.27;12.40;;;;;;;19.10;85.18;99726.66;5004960;28;20051;-81
2021/07/25 01:23:45;;;;;;;15.70;12.77;;;;;;;19.11;84.74;99712.25;5004154;28;20133;-81
2021/07/25 01:26:14;;;;;;;15.25;12.25;;;;;;;19.08;85.00;99707.16;5001220;28;20057;-81
2021/07/25 01:28:43;;;;;;;15.63;11.90;;;;;;;19.05;85.27;99707.44;5000333;28;20047;-81
2021/07/25 01:31:15;;;;;;;14.63;11.43;;;;;;;19.03;86.22;99709.44;5004694;28;20118;-81
2021/07/25 01:33:44;;;;;;;16.08;12.40;;;;;;;19.02;85.79;99704.22;5005262;28;20113;-81
2021/07/25 01:36:12;;;;;;;16.52;12.90;;;;;;;18.97;85.50;99712.69;5000777;28;20054;-81
2021/07/25 01:38:39;;;;;;;16.73;12.60;;;;;;;18.92;86.06;99712.25;4998195;28;20413;-81
2021/07/25 01:41:16;;;;;;;16.42;13.05;;;;;;;18.88;86.38;99713.53;4982919;28;20054;-81
2021/07/25 01:43:45;;;;;;;17.55;12.45;;;;;;;18.83;86.88;99718.47;4995492;28;20046;-81
2021/07/25 01:46:12;;;;;;;17.57;13.93;;;;;;;18.82;87.64;99711.41;4996995;28;20421;-81
2021/07/25 01:48:39;;;;;;;17.48;12.85;;;;;;;18.78;87.25;99710.00;5005009;28;20058;-81
2021/07/25 01:51:06;;;;;;;19.88;12.65;;;;;;;18.73;87.60;99707.72;5001246;28;20050;-81
2021/07/25 01:53:33;;;;;;;17.10;12.77;;;;;;;18.73;88.61;99714.94;5001176;28;20090;-81
2021/07/25 01:56:00;;;;;;;16.65;12.43;;;;;;;18.71;87.88;99711.56;4987958;28;20051;-81
2021/07/25 01:58:27;;;;;;;16.23;12.70;;;;;;;18.71;87.46;99699.00;5010845;28;20058;-81
2021/07/25 02:00:54;;;;;;;15.88;12.05;;;;;;;18.75;87.50;99702.22;4983269;28;20047;-81
2021/07/25 02:03:22;;;;;;;16.45;13.15;;;;;;;18.74;87.18;99693.31;5003156;28;20050;-81
2021/07/25 02:05:51;;;;;;;17.98;12.52;;;;;;;18.74;86.68;99697.84;5012409;28;20030;-80
2021/07/25 02:08:19;;;;;;;15.20;12.10;;;;;;;18.74;86.79;99697.84;5009667;28;20038;-81
2021/07/25 02:10:48;;;;;;;15.98;11.75;;;;;;;18.74;86.80;99695.16;5002373;28;20381;-81
2021/07/25 02:13:16;;;;;;;17.23;12.63;;;;;;;18.71;86.98;99696.31;5000600;28;20413;-81
2021/07/25 02:15:43;;;;;;;14.40;12.20;;;;;;;18.74;87.26;99706.72;5003404;28;20130;-82
2021/07/25 02:18:11;;;;;;;13.65;11.55;;;;;;;18.72;87.38;99707.88;5003893;28;20042;-81
2021/07/25 02:20:41;;;;;;;14.85;11.32;;;;;;;18.73;87.81;99706.91;5003041;28;20038;-81
2021/07/25 02:23:08;;;;;;;14.43;11.82;;;;;;;18.71;87.36;99711.56;5006997;28;20149;-81
2021/07/25 02:25:37;;;;;;;14.55;12.05;;;;;;;18.71;87.79;99700.81;5014692;28;20053;-81
2021/07/25 02:28:08;;;;;;;19.23;12.82;;;;;;;18.71;87.86;99699.00;5005429;28;20168;-82
2021/07/25 02:30:37;;;;;;;16.63;12.15;;;;;;;18.72;87.73;99702.53;5004719;28;20065;-81
2021/07/25 02:33:05;;;;;;;18.25;12.75;;;;;;;18.70;87.39;99697.31;4999958;28;20056;-81
2021/07/25 02:35:32;;;;;;;15.60;12.27;;;;;;;18.68;87.71;99706.47;5002920;28;20576;-81
2021/07/25 02:38:00;;;;;;;17.13;12.45;;;;;;;18.66;87.94;99692.34;5016075;28;20102;-81
2021/07/25 02:40:27;;;;;;;18.30;11.70;;;;;;;18.67;88.45;99692.22;5003045;28;20050;-81
2021/07/25 02:42:54;;;;;;;14.63;11.70;;;;;;;18.69;88.34;99695.59;5020355;28;20090;-81
2021/07/25 02:45:21;;;;;;;15.80;12.73;;;;;;;18.67;88.16;99681.47;5023094;28;20026;-81
2021/07/25 02:47:48;;;;;;;15.13;12.02;;;;;;;18.75;88.30;99688.81;5017798;28;20078;-81
2021/07/25 02:50:15;;;;;;;15.77;12.13;;;;;;;18.82;87.96;99687.28;5002273;28;20055;-81
2021/07/25 02:52:42;;;;;;;14.30;11.93;;;;;;;18.78;87.03;99692.06;4991874;28;20109;-81
2021/07/25 02:55:09;;;;;;;16.88;11.80;;;;;;;18.71;87.63;99695.47;4999108;28;20115;-81
2021/07/25 02:57:36;;;;;;;15.93;12.68;;;;;;;18.67;88.23;99694.03;5001541;28;20058;-81
2021/07/25 03:00:03;;;;;;;16.20;12.02;;;;;;;18.68;88.14;99701.09;5001901;28;20054;-81
2021/07/25 03:02:30;;;;;;;16.88;11.82;;;;;;;18.65;87.68;99701.38;5002049;28;20058;-81
2021/07/25 03:04:57;;;;;;;15.75;11.88;;;;;;;18.64;87.50;99702.38;5002361;28;20054;-81
2021/07/25 03:07:24;;;;;;;14.25;11.27;;;;;;;18.59;87.56;99716.19;5002297;28;20062;-81
2021/07/25 03:09:50;;;;;;;14.32;11.77;;;;;;;18.52;87.17;99710.50;5003218;28;20449;-81
2021/07/25 03:12:17;;;;;;;15.93;12.10;;;;;;;18.49;87.21;99716.16;5008969;28;20043;-80
2021/07/25 03:14:44;;;;;;;13.27;11.23;;;;;;;18.47;87.16;99726.16;5008155;28;20054;-81
2021/07/25 03:17:11;;;;;;;15.40;11.15;;;;;;;18.45;87.66;99728.13;5000833;28;20054;-81
2021/07/25 03:19:38;;;;;;;15.40;12.00;;;;;;;18.42;87.90;99727.53;5000414;28;20101;-81
2021/07/25 03:22:09;;;;;;;15.68;12.05;;;;;;;18.40;87.55;99729.53;5001394;28;20125;-81
2021/07/25 03:24:35;;;;;;;16.60;11.85;;;;;;;18.36;87.95;99728.97;5001490;28;20055;-81
2021/07/25 03:27:02;;;;;;;15.82;12.30;;;;;;;18.37;88.00;99729.81;5000923;28;20054;-81
2021/07/25 03:29:29;;;;;;;14.32;11.85;;;;;;;18.32;87.95;99727.53;4984696;28;20108;-81
2021/07/25 03:31:57;;;;;;;16.58;12.23;;;;;;;18.33;88.41;99731.91;5001405;28;20076;-81
2021/07/25 03:34:24;;;;;;;14.73;11.65;;;;;;;18.29;88.53;99730.50;5001756;28;20340;-81
2021/07/25 03:36:51;;;;;;;17.95;12.70;;;;;;;18.27;88.48;99724.41;5000025;28;20046;-81
2021/07/25 03:39:20;;;;;;;18.90;12.57;;;;;;;18.30;88.57;99728.66;4984172;28;20061;-81
2021/07/25 03:41:47;;;;;;;17.70;12.32;;;;;;;18.28;89.08;99733.31;5000511;28;20051;-81
2021/07/25 03:44:14;;;;;;;15.75;12.43;;;;;;;18.26;89.17;99729.94;5000253;28;20714;-81
2021/07/25 03:46:41;;;;;;;16.48;12.55;;;;;;;18.30;89.54;99732.19;5022899;28;20046;-81
2021/07/25 03:49:09;;;;;;;18.85;12.82;;;;;;;18.31;89.42;99743.75;5028688;28;20046;-81
2021/07/25 03:51:37;;;;;;;16.60;13.18;;;;;;;18.33;89.70;99739.97;5026712;28;20050;-81
2021/07/25 03:54:05;;;;;;;18.48;13.75;;;;;;;18.37;89.68;99732.50;4992456;28;20054;-81
2021/07/25 03:56:35;;;;;;;16.67;13.70;;;;;;;18.40;89.92;99729.53;5003899;28;20061;-81
2021/07/25 03:59:02;;;;;;;17.33;13.95;;;;;;;18.42;90.19;99727.53;4983528;28;20056;-81
2021/07/25 04:01:29;;;;;;;18.83;14.07;;;;;;;18.45;90.61;99729.97;5001001;28;20497;-81
2021/07/25 04:03:56;;;;;;;17.73;14.43;;;;;;;18.52;90.60;99731.13;4999972;28;20239;-81
2021/07/25 04:06:23;;;;;;;18.92;15.52;;;;;;;18.53;90.38;99732.81;4999380;28;20058;-81
2021/07/25 04:08:49;;;;;;;17.13;14.48;;;;;;;18.58;90.54;99731.41;5010137;28;20038;-81
2021/07/25 04:11:20;;;;;;;20.88;16.15;;;;;;;18.64;90.90;99739.91;5023515;28;20033;-81
2021/07/25 04:13:49;;;;;;;21.52;16.52;;;;;;;18.65;90.63;99730.88;5029950;28;20073;-81
2021/07/25 04:16:17;;;;;;;23.83;18.67;;;;;;;18.73;91.38;99733.72;5037426;28;20042;-80
2021/07/25 04:18:44;;;;;;;23.83;18.48;;;;;;;18.80;91.88;99737.53;5037572;28;20041;-81
2021/07/25 04:21:11;;;;;;;24.52;19.27;;;;;;;18.84;91.76;99726.38;5024081;28;20046;-81
2021/07/25 04:23:40;;;;;;;23.88;18.98;;;;;;;18.87;91.84;99730.63;5008525;28;20490;-81
2021/07/25 04:26:07;;;;;;;28.20;19.95;;;;;;;18.93;91.71;99735.41;4998930;28;20053;-81
2021/07/25 04:28:34;;;;;;;25.20;19.42;;;;;;;18.95;92.02;99728.06;4998149;28;20058;-81
2021/07/25 04:31:01;;;;;;;29.25;20.15;;;;;;;18.97;91.54;99739.50;4998954;28;20069;-81
2021/07/25 04:33:29;;;;;;;25.27;18.90;;;;;;;19.01;91.65;99745.44;4998666;28;20054;-81
2021/07/25 04:35:57;;;;;;;27.10;19.65;;;;;;;19.04;91.41;99746.03;5000143;28;20478;-81
2021/07/25 04:38:23;;;;;;;21.25;17.88;;;;;;;19.08;91.32;99743.88;5011346;28;20050;-80
2021/07/25 04:41:01;;;;;;;26.85;21.42;;;;;;;19.10;90.54;99740.06;5013224;28;20184;-81
2021/07/25 04:43:30;;;;;;;23.80;19.55;;;;;;;19.10;90.69;99740.06;4996423;28;20054;-80
2021/07/25 04:46:04;;;;;;;29.27;20.52;;;;;;;19.12;90.72;99742.63;5013887;28;20038;-81
2021/07/25 04:48:58;;;;;;;29.70;22.33;;;;;;;19.10;91.00;99749.94;5009867;28;20062;-81
2021/07/25 04:51:26;;;;;;;29.75;22.48;;;;;;;19.09;91.00;99749.09;4999440;28;20064;-81
2021/07/25 04:54:04;;;;;;;34.38;23.02;;;;;;;19.03;90.84;99755.06;4998852;28;20080;-81
2021/07/25 04:56:57;;;;;;;34.00;24.20;;;;;;;19.01;91.04;99762.41;4999611;28;20046;-81
2021/07/25 04:59:27;;;;;;;35.75;24.45;;;;;;;19.00;91.28;99754.47;4997772;28;20220;-81
2021/07/25 05:01:59;;;;;;;38.15;25.17;;;;;;;19.00;91.67;99758.00;4999908;28;20049;-81
2021/07/25 05:04:28;;;;;;;38.30;25.02;;;;;;;18.95;91.64;99760.25;5003849;28;20122;-81
2021/07/25 05:06:56;;;;;;;35.58;24.75;;;;;;;18.93;91.94;99762.22;5005422;28;20118;-81
2021/07/25 05:09:23;;;;;;;34.70;25.45;;;;;;;18.90;92.07;99762.50;5002805;28;20060;-81
2021/07/25 05:12:10;;;;;;;40.38;25.95;;;;;;;18.86;92.31;99763.81;5000275;28;20045;-81
2021/07/25 05:14:46;;;;;;;37.63;25.08;;;;;;;18.83;92.58;99756.03;4999026;28;20050;-81
2021/07/25 05:17:21;;;;;;;42.50;25.50;;;;;;;18.80;92.52;99762.50;4993221;28;20073;-81
2021/07/25 05:19:56;;;;;;;42.60;28.10;;;;;;;18.79;92.63;99766.19;5016180;28;20073;-80
2021/07/25 05:22:32;;;;;;;39.42;27.27;;;;;;;18.74;92.72;99757.69;5017402;28;20097;-81
2021/07/25 05:25:02;;;;;;;41.03;28.95;;;;;;;18.81;93.05;99772.25;5012072;28;20046;-81
2021/07/25 05:27:37;;;;;;;40.55;27.63;;;;;;;18.88;92.88;99768.03;5009079;28;20073;-81
2021/07/25 05:30:05;;;;;;;43.40;28.80;;;;;;;19.01;92.34;99773.13;5007042;28;20050;-81
2021/07/25 05:32:31;;;;;;;38.28;27.40;;;;;;;19.09;91.50;99757.16;4989759;28;20117;-81
2021/07/25 05:34:59;;;;;;;39.10;27.05;;;;;;;19.19;91.02;99763.38;5010534;28;20050;-80
2021/07/25 05:37:26;;;;;;;42.08;28.58;;;;;;;19.27;90.21;99766.19;5019363;28;20113;-81
2021/07/25 05:39:53;;;;;;;37.35;26.42;;;;;;;19.39;89.41;99766.03;5020249;28;20050;-81
2021/07/25 05:42:19;;;;;;;34.20;25.55;;;;;;;19.44;88.83;99774.50;5013651;28;20073;-81
2021/07/25 05:44:47;;;;;;;35.58;26.23;;;;;;;19.47;88.44;99782.28;5006799;28;20050;-81
2021/07/25 05:47:13;;;;;;;43.20;26.92;;;;;;;19.42;88.54;99773.81;5004929;28;20054;-80
2021/07/25 05:49:40;;;;;;;40.80;26.92;;;;;;;19.38;88.72;99761.66;5009180;28;20046;-80
2021/07/25 05:52:07;;;;;;;40.83;26.25;;;;;;;19.37;88.89;99768.00;5016716;28;20330;-81
2021/07/25 05:54:33;;;;;;;38.25;25.15;;;;;;;19.40;88.92;99773.09;5017144;28;20082;-80
2021/07/25 05:57:02;;;;;;;44.30;27.02;;;;;;;19.33;89.00;99770.16;5017043;28;20112;-80
2021/07/25 05:59:28;;;;;;;46.03;27.23;;;;;;;19.35;89.17;99776.22;5017347;28;20137;-80
2021/07/25 06:01:55;;;;;;;48.10;29.02;;;;;;;19.31;89.74;99784.72;5001943;28;20069;-80
2021/07/25 06:04:22;;;;;;;48.58;27.85;;;;;;;19.31;89.96;99790.06;5021114;28;20030;-79
2021/07/25 06:06:48;;;;;;;40.42;26.63;;;;;;;19.31;89.83;99782.03;5022112;28;20116;-80
2021/07/25 06:09:15;;;;;;;41.22;25.58;;;;;;;19.38;89.48;99793.88;5021443;28;20042;-80
2021/07/25 06:11:43;;;;;;;39.03;25.05;;;;;;;19.43;89.34;99791.59;5021642;28;20048;-81
2021/07/25 06:14:10;;;;;;;35.60;24.55;;;;;;;19.44;88.94;99798.69;5023738;28;20053;-80
2021/07/25 06:16:36;;;;;;;33.58;23.98;;;;;;;19.41;88.96;99805.19;5025283;28;20057;-81
2021/07/25 06:19:03;;;;;;;33.40;22.85;;;;;;;19.41;89.11;99798.97;5022730;28;20046;-80
2021/07/25 06:21:30;;;;;;;39.05;23.92;;;;;;;19.40;89.11;99799.94;5022307;28;20046;-81
2021/07/25 06:23:59;;;;;;;32.20;22.85;;;;;;;19.37;89.15;99802.91;5021905;28;20056;-81
2021/07/25 06:26:26;;;;;;;33.50;23.25;;;;;;;19.45;89.42;99800.38;5023013;28;20301;-81
2021/07/25 06:28:53;;;;;;;30.90;21.17;;;;;;;19.56;88.71;99805.63;5021345;28;20046;-81
2021/07/25 06:31:20;;;;;;;28.27;19.88;;;;;;;19.69;87.89;99803.47;5022339;28;20137;-81
2021/07/25 06:33:47;;;;;;;26.60;17.38;;;;;;;19.73;87.19;99810.25;5020661;28;20049;-81
2021/07/25 06:36:14;;;;;;;24.60;17.17;;;;;;;19.82;86.31;99809.41;5004460;28;20055;-81
2021/07/25 06:38:41;;;;;;;28.65;18.45;;;;;;;19.90;85.24;99809.50;4999329;28;20058;-81
2021/07/25 06:41:08;;;;;;;26.77;18.38;;;;;;;19.99;84.78;99807.78;5008435;28;20107;-80
2021/07/25 06:43:35;;;;;;;26.42;19.35;;;;;;;20.05;84.22;99806.34;5025044;28;20085;-81
2021/07/25 06:46:02;;;;;;;27.42;19.85;;;;;;;20.08;83.77;99819.50;5025211;28;20088;-81
2021/07/25 06:48:32;;;;;;;32.40;20.90;;;;;;;20.10;84.23;99814.84;5006429;28;20146;-80
2021/07/25 06:51:00;;;;;;;33.53;22.80;;;;;;;20.20;84.29;99808.41;5009821;28;20065;-80
2021/07/25 06:53:30;;;;;;;32.97;23.17;;;;;;;20.31;83.34;99818.13;5007782;28;20046;-80
2021/07/25 06:56:01;;;;;;;33.20;23.60;;;;;;;20.32;83.17;99817.97;5015950;28;20066;-80
2021/07/25 06:58:27;;;;;;;32.17;23.35;;;;;;;20.33;83.19;99821.50;5010767;28;20074;-79
2021/07/25 07:00:57;;;;;;;30.52;21.52;;;;;;;20.33;82.87;99821.50;4987935;28;20051;-80
2021/07/25 07:03:24;;;;;;;32.67;21.85;;;;;;;20.30;83.12;99822.66;4992971;28;20047;-80
2021/07/25 07:05:51;;;;;;;33.50;22.25;;;;;;;20.30;83.74;99816.47;4987247;28;20106;-80
2021/07/25 07:08:20;;;;;;;30.85;20.17;;;;;;;20.37;83.93;99811.34;4983041;28;20133;-80
2021/07/25 07:10:47;;;;;;;30.65;21.52;;;;;;;20.42;82.64;99812.59;4990715;28;20050;-80
2021/07/25 07:13:16;;;;;;;29.73;21.13;;;;;;;20.43;82.39;99813.47;5013474;28;20068;-79
2021/07/25 07:15:45;;;;;;;32.30;22.60;;;;;;;20.43;82.68;99818.84;5019638;28;20082;-81
2021/07/25 07:18:12;;;;;;;33.70;22.42;;;;;;;20.40;83.13;99811.91;5019076;28;20588;-80
2021/07/25 07:20:38;;;;;;;34.05;23.48;;;;;;;20.45;83.07;99815.00;5011138;28;20080;-79
2021/07/25 07:23:10;;;;;;;34.72;23.02;;;;;;;20.46;83.37;99813.16;5004510;28;20053;-80
2021/07/25 07:25:40;;;;;;;35.58;23.38;;;;;;;20.44;83.14;99816.00;5004842;28;20064;-80
2021/07/25 07:28:07;;;;;;;33.75;22.98;;;;;;;20.38;83.55;99821.13;5006026;28;20413;-80
2021/07/25 07:30:35;;;;;;;31.50;21.90;;;;;;;20.42;83.55;99819.81;5002840;28;20494;-80
2021/07/25 07:33:13;;;;;;;29.77;21.23;;;;;;;20.45;83.40;99830.28;5000218;28;20045;-80
2021/07/25 07:35:40;;;;;;;30.20;21.30;;;;;;;20.41;83.06;99820.81;4999445;28;20057;-80
2021/07/25 07:38:08;;;;;;;30.38;21.00;;;;;;;20.50;83.26;99828.84;4998606;28;20094;-80
2021/07/25 07:40:35;;;;;;;25.98;19.23;;;;;;;20.60;82.68;99826.13;5003805;28;20046;-80
2021/07/25 07:43:03;;;;;;;25.27;17.27;;;;;;;20.70;82.52;99829.59;5011211;28;20540;-80
2021/07/25 07:45:32;;;;;;;24.13;17.67;;;;;;;20.76;81.42;99830.84;4997854;28;20058;-80
2021/07/25 07:48:02;;;;;;;24.63;17.67;;;;;;;20.78;81.44;99832.34;4997494;28;20054;-80
2021/07/25 07:50:29;;;;;;;26.73;18.42;;;;;;;20.83;81.05;99818.47;4996539;28;20134;-80
2021/07/25 07:52:57;;;;;;;22.33;17.70;;;;;;;20.93;80.98;99825.50;4996954;28;20354;-80
2021/07/25 07:55:25;;;;;;;18.92;15.80;;;;;;;21.13;81.32;99818.09;4998914;28;20493;-80
2021/07/25 07:57:52;;;;;;;20.40;15.88;;;;;;;21.28;79.82;99815.75;4989306;28;20051;-81
2021/07/25 08:00:19;;;;;;;17.77;15.07;;;;;;;21.43;78.56;99807.97;4978468;28;20055;-80
2021/07/25 08:02:45;;;;;;;22.38;15.55;;;;;;;21.63;78.12;99812.19;4998812;28;20054;-80
2021/07/25 08:05:13;;;;;;;17.80;14.35;;;;;;;21.81;76.57;99822.91;4992695;28;20096;-80
2021/07/25 08:07:41;;;;;;;17.08;13.73;;;;;;;21.91;75.46;99819.13;4988727;28;20077;-81
2021/07/25 08:10:08;;;;;;;16.85;12.48;;;;;;;22.01;74.82;99814.50;4983350;28;20112;-80
2021/07/25 08:12:36;;;;;;;15.35;12.32;;;;;;;22.20;74.21;99815.25;4994973;28;20046;-80
2021/07/25 08:15:04;;;;;;;13.50;11.80;;;;;;;22.29;72.68;99815.16;4997840;28;20468;-80
2021/07/25 08:17:31;;;;;;;20.02;12.93;;;;;;;22.37;71.60;99817.03;4994458;28;20074;-80
2021/07/25 08:19:58;;;;;;;13.88;12.32;;;;;;;22.43;72.46;99818.25;5004259;28;20065;-79
2021/07/25 08:22:25;;;;;;;13.60;10.48;;;;;;;22.52;72.95;99812.72;5003551;28;20031;-81
2021/07/25 08:24:53;;;;;;;13.70;11.00;;;;;;;22.74;71.99;99816.69;4998136;28;20113;-82
2021/07/25 08:27:20;;;;;;;14.02;11.15;;;;;;;23.17;70.56;99809.38;4997747;28;20050;-82
2021/07/25 08:29:48;;;;;;;13.80;10.25;;;;;;;23.47;68.48;99814.13;4997161;28;20499;-81
2021/07/25 08:32:15;;;;;;;14.23;10.02;;;;;;;23.46;66.48;99815.16;4999916;28;20082;-81
2021/07/25 08:34:41;;;;;;;12.65;10.15;;;;;;;23.55;66.30;99819.59;4998281;28;20133;-82
2021/07/25 08:37:09;;;;;;;12.68;9.20;;;;;;;23.71;66.09;99819.59;4998614;28;20046;-81
2021/07/25 08:39:39;;;;;;;11.90;9.40;;;;;;;23.67;65.58;99820.94;4995526;28;20092;-81
2021/07/25 08:42:08;;;;;;;10.82;9.20;;;;;;;23.73;64.70;99817.56;5001941;28;20052;-81
2021/07/25 08:44:53;;;;;;;9.13;8.13;;;;;;;23.94;64.20;99805.34;5008779;28;20064;-82
2021/07/25 08:47:36;;;;;;;11.43;8.30;;;;;;;24.12;64.17;99806.81;4989021;28;20053;-82
2021/07/25 08:50:07;;;;;;;10.57;8.48;;;;;;;24.33;64.10;99800.03;4990040;28;20042;-81
2021/07/25 08:52:36;;;;;;;11.88;8.73;;;;;;;24.55;63.42;99806.56;4999085;28;20050;-81
2021/07/25 08:55:09;;;;;;;11.95;9.25;;;;;;;24.63;62.29;99806.50;4995707;28;20050;-82
2021/07/25 08:57:40;;;;;;;11.23;8.23;;;;;;;24.50;61.08;99808.94;5003800;28;20133;-81
2021/07/25 09:00:08;;;;;;;11.02;8.52;;;;;;;24.44;62.84;99807.75;4993920;28;20062;-82
2021/07/25 09:02:40;;;;;;;11.70;8.75;;;;;;;24.47;62.86;99802.00;4992180;28;20060;-81
2021/07/25 09:05:07;;;;;;;11.68;9.02;;;;;;;24.58;62.10;99812.44;4999844;28;20547;-82
2021/07/25 09:07:37;;;;;;;11.40;8.65;;;;;;;24.67;61.34;99810.56;4999441;28;20073;-81
2021/07/25 09:10:07;;;;;;;9.52;7.82;;;;;;;24.73;62.37;99807.97;5000875;28;20153;-82
2021/07/25 09:12:34;;;;;;;;;;;;;;;24.68;61.05;99812.25;5003358;28;20050;-81
2021/07/25 09:15:14;;;;;;;10.88;8.50;;;;;;;24.50;61.55;99820.63;5005933;28;19976;-82
2021/07/25 09:17:41;;;;;;;11.93;8.48;;;;;;;24.41;62.14;99810.81;5000346;28;20129;-81
2021/07/25 09:20:19;;;;;;;12.82;7.80;;;;;;;24.40;61.62;99804.56;5007097;28;20046;-82
2021/07/25 09:22:47;;;;;;;9.20;7.45;;;;;;;24.43;61.57;99812.34;4981822;28;20062;-82
2021/07/25 09:25:19;;;;;;;9.63;7.47;;;;;;;24.38;60.28;99809.34;5008676;28;20068;-81
2021/07/25 09:28:12;;;;;;;8.55;7.40;;;;;;;24.24;61.68;99814.63;5002504;28;20070;-81
2021/07/25 09:30:39;;;;;;;10.70;7.75;;;;;;;24.12;62.26;99814.09;5001903;28;20054;-81
2021/07/25 09:33:29;;;;;;;8.88;7.18;;;;;;;24.16;61.59;99811.91;5011163;28;20105;-81
2021/07/25 09:36:08;;;;;;;7.70;6.45;;;;;;;24.11;61.25;99810.53;5006997;28;20114;-81
2021/07/25 09:38:37;;;;;;;9.90;7.88;;;;;;;24.00;61.02;99812.78;5002121;28;20106;-81
2021/07/25 09:41:19;;;;;;;9.77;7.90;;;;;;;23.91;62.63;99814.66;5012421;28;20034;-81
2021/07/25 09:44:03;;;;;;;12.90;7.47;;;;;;;23.98;62.19;99815.66;5006912;28;20041;-81
2021/07/25 09:46:44;;;;;;;8.15;6.93;;;;;;;24.07;60.43;99819.19;5006581;28;20114;-81
2021/07/25 09:49:12;;;;;;;8.57;6.53;;;;;;;24.17;60.86;99821.69;5012496;28;20065;-81
2021/07/25 09:51:39;;;;;;;7.32;6.25;;;;;;;24.30;61.15;99822.88;5016756;28;20097;-81
2021/07/25 09:54:06;;;;;;;9.85;6.50;;;;;;;24.35;60.79;99822.34;5016825;28;20551;-81
2021/07/25 09:56:34;;;;;;;8.18;6.05;;;;;;;24.39;59.53;99826.41;5020900;28;20086;-81
2021/07/25 09:59:03;;;;;;;8.05;5.88;;;;;;;24.44;59.02;99829.41;5027285;28;20042;-81
2021/07/25 10:01:37;;;;;;;7.38;5.75;;;;;;;24.48;59.09;99819.94;5014356;28;20089;-81
2021/07/25 10:04:21;;;;;;;10.77;5.25;;;;;;;24.42;58.63;99816.06;4994452;28;20047;-81
2021/07/25 10:06:50;;;;;;;6.85;5.72;;;;;;;24.43;58.72;99815.03;4995074;28;20058;-81
2021/07/25 10:09:19;;;;;;;7.05;6.07;;;;;;;24.55;58.78;99811.97;4999638;28;20050;-81
2021/07/25 10:11:55;;;;;;;7.97;5.55;;;;;;;24.63;55.92;99818.19;5002747;28;20054;-81
2021/07/25 10:14:24;;;;;;;8.13;5.13;;;;;;;24.65;55.30;99812.59;5003796;28;20054;-81
2021/07/25 10:16:55;;;;;;;8.35;5.18;;;;;;;24.62;55.69;99810.22;5002743;28;20169;-81
2021/07/25 10:19:28;;;;;;;7.38;4.90;;;;;;;24.65;55.07;99809.88;5004852;28;20387;-81
2021/07/25 10:21:57;;;;;;;6.20;5.07;;;;;;;24.65;55.03;99808.03;5011844;28;20109;-81
2021/07/25 10:24:26;;;;;;;7.47;5.78;;;;;;;24.68;55.30;99796.00;5009114;28;20057;-81
2021/07/25 10:26:54;;;;;;;6.32;5.28;;;;;;;24.80;55.33;99798.13;5017590;28;20058;-80
2021/07/25 10:29:23;;;;;;;7.20;5.90;;;;;;;24.88;55.42;99791.81;5002135;28;20133;-81
2021/07/25 10:31:54;;;;;;;6.70;5.65;;;;;;;24.98;55.75;99805.16;5007416;28;20054;-80
2021/07/25 10:34:21;;;;;;;6.15;5.15;;;;;;;25.14;55.24;99805.91;5004774;28;20072;-81
2021/07/25 10:36:51;;;;;;;7.57;5.47;;;;;;;25.26;55.10;99797.34;4999487;28;20145;-81
2021/07/25 10:39:19;;;;;;;7.13;5.50;;;;;;;25.38;55.41;99799.44;5001618;28;20153;-81
2021/07/25 10:41:49;;;;;;;6.18;5.30;;;;;;;25.42;54.88;99795.38;5004847;28;20054;-81
2021/07/25 10:44:16;;;;;;;7.03;5.68;;;;;;;25.49;54.29;99795.50;5002797;28;20056;-81
2021/07/25 10:46:43;;;;;;;6.75;4.97;;;;;;;25.58;54.69;99790.81;5000668;28;20058;-81
2021/07/25 10:49:17;;;;;;;6.68;5.30;;;;;;;25.62;54.39;99794.91;5001284;28;20085;-81
2021/07/25 10:52:00;;;;;;;8.55;5.60;;;;;;;25.69;54.78;99793.13;4999671;28;20114;-81
2021/07/25 10:54:26;;;;;;;8.77;5.40;;;;;;;25.71;54.32;99785.66;4989696;28;20058;-81
2021/07/25 10:57:06;;;;;;;6.40;4.63;;;;;;;25.78;53.08;99787.44;5018102;28;20092;-80
2021/07/25 10:59:42;;;;;;;5.43;4.50;;;;;;;25.88;50.78;99776.31;5018119;28;20061;-80
2021/07/25 11:02:51;;;;;;;5.65;4.90;;;;;;;25.93;51.20;99782.03;5017599;28;20070;-80
2021/07/25 11:05:19;;;;;;;5.50;4.80;;;;;;;26.08;51.51;99774.75;4999431;28;20069;-80
2021/07/25 11:07:57;;;;;;;6.25;4.45;;;;;;;26.13;50.17;99775.00;5016210;28;20070;-79
2021/07/25 11:10:35;;;;;;;6.65;4.63;;;;;;;26.15;51.28;99770.25;5015074;28;20079;-80
2021/07/25 11:13:02;;;;;;;6.05;4.57;;;;;;;26.11;52.14;99771.69;5015484;28;20078;-80
2021/07/25 11:15:31;;;;;;;5.25;4.28;;;;;;;26.09;51.41;99773.72;5014226;28;20074;-81
2021/07/25 11:18:08;;;;;;;7.50;4.60;;;;;;;26.13;50.99;99764.16;4988583;28;20093;-81
2021/07/25 11:20:55;;;;;;;7.38;4.55;;;;;;;26.21;49.89;99766.78;5013026;28;20053;-81
2021/07/25 11:23:23;;;;;;;6.22;4.53;;;;;;;26.32;50.79;99765.50;5022485;28;20034;-81
2021/07/25 11:25:51;;;;;;;5.90;4.30;;;;;;;26.47;49.90;99762.75;5012201;28;20105;-80
2021/07/25 11:28:38;;;;;;;5.30;4.00;;;;;;;26.67;48.72;99766.56;5002264;28;20074;-80
2021/07/25 11:31:06;;;;;;;5.90;4.00;;;;;;;26.67;48.40;99749.44;5004318;28;20106;-80
2021/07/25 11:33:48;;;;;;;6.70;3.90;;;;;;;26.76;48.43;99754.56;5005200;28;20062;-80